Time;durP1;ratioP1;P1;durP2;ratioP2;P2;SDS_P1;SDS_P2;PMS_P1;PMS_P2;Temp;Humidity;BMP_temperature;BMP_pressure;BME280_temperature;BME280_humidity;BME280_pressure;Samples;Min_cycle;Max_cycle;Signal;HPM_P1;HPM_P2
2023/03/24 00:01:30;;;;;;;;;;;17.40;66.10;;;;;;5037130;28;1992;-71
2023/03/24 00:03:56;;;;;;;;;;;17.40;66.10;;;;;;5069379;28;1358;-71
2023/03/24 00:06:21;;;;;;;;;;;17.40;66.10;;;;;;5048275;28;1206;-71
2023/03/24 00:08:47;;;;;;;;;;;17.40;66.10;;;;;;5047231;28;820;-70
2023/03/24 00:11:13;;;;;;;;;;;17.40;66.10;;;;;;5039968;28;872;-71
2023/03/24 00:13:38;;;;;;;;;;;17.40;66.10;;;;;;5069477;28;1397;-72
2023/03/24 00:16:05;;;;;;;;;;;17.40;66.10;;;;;;5038379;28;939;-71
2023/03/24 00:18:31;;;;;;;;;;;17.40;66.10;;;;;;5071110;28;872;-67
2023/03/24 00:20:57;;;;;;;;;;;17.40;66.10;;;;;;5038365;28;848;-72
2023/03/24 00:23:23;;;;;;;;;;;17.40;66.20;;;;;;5042430;28;1279;-72
2023/03/24 00:25:57;;;;;;;;;;;17.40;66.20;;;;;;5036222;28;896;-72
2023/03/24 00:28:22;;;;;;;;;;;17.30;66.10;;;;;;5036635;28;856;-72
2023/03/24 00:30:52;;;;;;;;;;;17.30;66.20;;;;;;5038183;28;1325;-69
2023/03/24 00:33:17;;;;;;;;;;;17.30;66.10;;;;;;5034878;28;1362;-69
2023/03/24 00:35:43;;;;;;;;;;;17.40;66.30;;;;;;5039928;28;857;-70
2023/03/24 00:38:09;;;;;;;;;;;17.30;66.20;;;;;;5043222;28;1497;-70
2023/03/24 00:40:34;;;;;;;;;;;17.30;66.20;;;;;;5041004;28;849;-69
2023/03/24 00:43:00;;;;;;;;;;;17.30;66.20;;;;;;5039826;28;1898;-70
2023/03/24 00:45:28;;;;;;;;;;;17.40;66.30;;;;;;5037076;28;1430;-69
2023/03/24 00:47:56;;;;;;;;;;;17.30;66.20;;;;;;5038335;28;856;-72
2023/03/24 00:50:25;;;;;;;;;;;17.30;66.20;;;;;;5066574;28;919;-72
2023/03/24 00:52:51;;;;;;;;;;;17.30;66.30;;;;;;5039183;28;1338;-72
2023/03/24 00:55:16;;;;;;;;;;;17.30;66.20;;;;;;5042800;28;1347;-70
2023/03/24 00:57:48;;;;;;;;;;;17.30;66.60;;;;;;5036624;28;1007;-69
2023/03/24 01:00:18;;;;;;;;;;;17.30;66.30;;;;;;5039055;28;883;-69
2023/03/24 01:02:45;;;;;;;;;;;17.30;66.30;;;;;;5037468;28;1894;-70
2023/03/24 01:05:10;;;;;;;;;;;17.30;66.30;;;;;;5037516;28;1293;-69
2023/03/24 01:07:40;;;;;;;;;;;17.30;66.30;;;;;;5035878;28;978;-69
2023/03/24 01:10:07;;;;;;;;;;;17.30;66.30;;;;;;5040190;28;1361;-68
2023/03/24 01:12:34;;;;;;;;;;;17.30;66.30;;;;;;5072473;28;831;-68
2023/03/24 01:14:59;;;;;;;;;;;17.30;66.30;;;;;;5041067;28;1286;-68
2023/03/24 01:17:25;;;;;;;;;;;17.30;66.40;;;;;;5040035;28;955;-69
2023/03/24 01:19:51;;;;;;;;;;;17.30;66.40;;;;;;5074670;28;860;-69
2023/03/24 01:22:17;;;;;;;;;;;17.30;66.40;;;;;;5039544;28;1914;-69
2023/03/24 01:24:42;;;;;;;;;;;17.30;66.30;;;;;;5040440;28;1262;-68
2023/03/24 01:27:08;;;;;;;;;;;17.30;66.40;;;;;;5045983;28;882;-69
2023/03/24 01:29:34;;;;;;;;;;;17.30;66.40;;;;;;5040463;28;950;-68
2023/03/24 01:31:59;;;;;;;;;;;17.30;66.40;;;;;;5039593;28;1051;-69
2023/03/24 01:34:25;;;;;;;;;;;17.30;66.40;;;;;;5042399;28;1200;-69
2023/03/24 01:36:50;;;;;;;;;;;17.30;66.40;;;;;;5043659;28;1398;-69
2023/03/24 01:39:16;;;;;;;;;;;17.30;66.40;;;;;;5042950;28;895;-68
2023/03/24 01:41:41;;;;;;;;;;;17.30;66.50;;;;;;5040097;28;1985;-71
2023/03/24 01:44:27;;;;;;;;;;;17.30;66.40;;;;;;5040500;28;1357;-72
2023/03/24 01:46:53;;;;;;;;;;;17.30;66.50;;;;;;5071811;28;800;-71
2023/03/24 01:49:19;;;;;;;;;;;17.30;66.40;;;;;;5039116;28;875;-72
2023/03/24 01:51:45;;;;;;;;;;;17.30;66.50;;;;;;5045478;28;873;-72
2023/03/24 01:54:13;;;;;;;;;;;17.30;66.50;;;;;;5047838;28;1348;-70
2023/03/24 01:56:41;;;;;;;;;;;17.30;66.50;;;;;;5042040;28;875;-70
2023/03/24 01:59:11;;;;;;;;;;;17.30;66.50;;;;;;5074576;28;871;-70
2023/03/24 02:01:37;;;;;;;;;;;17.30;66.50;;;;;;5041329;28;1949;-68
2023/03/24 02:04:03;;;;;;;;;;;17.30;66.50;;;;;;5039405;28;1359;-69
2023/03/24 02:06:30;;;;;;;;;;;17.30;66.50;;;;;;5069748;28;926;-69
2023/03/24 02:08:56;;;;;;;;;;;17.30;66.50;;;;;;5040940;28;910;-69
2023/03/24 02:11:22;;;;;;;;;;;17.30;66.50;;;;;;5039751;28;825;-69
2023/03/24 02:13:48;;;;;;;;;;;17.30;66.50;;;;;;5069445;28;1283;-71
2023/03/24 02:16:32;;;;;;;;;;;17.30;66.60;;;;;;5041004;28;1271;-69
2023/03/24 02:18:58;;;;;;;;;;;17.30;66.60;;;;;;5041900;28;1038;-71
2023/03/24 02:21:42;;;;;;;;;;;17.20;66.50;;;;;;5039706;28;2030;-71
2023/03/24 02:24:07;;;;;;;;;;;17.30;66.50;;;;;;5042313;28;1579;-71
2023/03/24 02:26:51;;;;;;;;;;;17.30;66.60;;;;;;5043005;28;898;-71
2023/03/24 02:29:23;;;;;;;;;;;17.20;66.50;;;;;;5043334;28;1238;-71
2023/03/24 02:32:06;;;;;;;;;;;17.20;66.50;;;;;;5041911;28;857;-71
2023/03/24 02:34:50;;;;;;;;;;;17.30;66.60;;;;;;5041377;28;1333;-69
2023/03/24 02:37:20;;;;;;;;;;;17.30;66.60;;;;;;5040219;28;1493;-70
2023/03/24 02:39:45;;;;;;;;;;;17.20;66.60;;;;;;5040602;28;863;-70
2023/03/24 02:42:30;;;;;;;;;;;17.30;67.40;;;;;;5040132;28;1973;-70
2023/03/24 02:45:14;;;;;;;;;;;17.20;66.60;;;;;;5040282;28;1275;-70
2023/03/24 02:47:48;;;;;;;;;;;17.20;66.60;;;;;;5041298;28;876;-70
2023/03/24 02:50:17;;;;;;;;;;;17.20;66.60;;;;;;5041942;28;804;-71
2023/03/24 02:52:42;;;;;;;;;;;17.20;66.60;;;;;;5044921;28;1362;-71
2023/03/24 02:55:15;;;;;;;;;;;17.20;66.60;;;;;;5044474;28;1356;-71
2023/03/24 02:57:47;;;;;;;;;;;17.20;66.60;;;;;;5071929;28;875;-72
2023/03/24 03:00:16;;;;;;;;;;;17.20;66.60;;;;;;5069863;28;1185;-69
2023/03/24 03:02:44;;;;;;;;;;;17.20;66.60;;;;;;5036197;28;1930;-70
2023/03/24 03:05:14;;;;;;;;;;;17.20;66.60;;;;;;5072369;28;1367;-70
2023/03/24 03:07:40;;;;;;;;;;;17.20;66.70;;;;;;5071986;28;836;-70
2023/03/24 03:10:08;;;;;;;;;;;17.20;66.70;;;;;;5036519;28;1148;-71
2023/03/24 03:12:34;;;;;;;;;;;17.20;66.70;;;;;;5041611;28;864;-70
2023/03/24 03:15:11;;;;;;;;;;;17.20;66.70;;;;;;5038767;28;1288;-70
2023/03/24 03:18:06;;;;;;;;;;;17.20;66.70;;;;;;5072063;28;840;-70
2023/03/24 03:20:33;;;;;;;;;;;17.20;66.70;;;;;;5041734;28;1326;-70
2023/03/24 03:23:01;;;;;;;;;;;17.20;66.70;;;;;;5040694;28;2429;-71
2023/03/24 03:25:27;;;;;;;;;;;17.20;66.80;;;;;;5037808;28;1228;-68
2023/03/24 03:27:55;;;;;;;;;;;17.20;66.70;;;;;;5037930;28;1487;-70
2023/03/24 03:30:24;;;;;;;;;;;17.20;66.70;;;;;;5041107;28;903;-70
2023/03/24 03:32:53;;;;;;;;;;;17.20;66.70;;;;;;5038838;28;813;-69
2023/03/24 03:35:41;;;;;;;;;;;17.20;66.70;;;;;;5069311;28;1315;-69
2023/03/24 03:38:18;;;;;;;;;;;17.20;66.70;;;;;;5037702;28;1396;-69
2023/03/24 03:40:49;;;;;;;;;;;17.20;66.70;;;;;;5046777;28;840;-67
2023/03/24 03:43:15;;;;;;;;;;;17.20;66.80;;;;;;5037996;28;1890;-69
2023/03/24 03:45:40;;;;;;;;;;;17.20;66.80;;;;;;5038662;28;892;-69
2023/03/24 03:48:06;;;;;;;;;;;17.20;66.80;;;;;;5039353;28;875;-70
2023/03/24 03:50:31;;;;;;;;;;;17.20;66.80;;;;;;5070133;28;896;-70
2023/03/24 03:52:57;;;;;;;;;;;17.20;66.70;;;;;;5071093;28;1278;-70
2023/03/24 03:55:22;;;;;;;;;;;17.20;66.80;;;;;;5070213;28;1267;-71
2023/03/24 03:57:47;;;;;;;;;;;17.20;66.80;;;;;;5037300;28;817;-70
2023/03/24 04:00:14;;;;;;;;;;;17.20;66.80;;;;;;5073127;28;969;-71
2023/03/24 04:02:47;;;;;;;;;;;17.20;66.80;;;;;;5034714;28;1964;-70
2023/03/24 04:05:24;;;;;;;;;;;17.20;66.80;;;;;;5035434;28;1305;-71
2023/03/24 04:07:56;;;;;;;;;;;17.20;66.80;;;;;;5051438;28;1241;-70
2023/03/24 04:10:40;;;;;;;;;;;17.20;66.80;;;;;;5040472;28;888;-70
2023/03/24 04:13:25;;;;;;;;;;;17.20;66.80;;;;;;5037120;28;876;-69
2023/03/24 04:15:53;;;;;;;;;;;17.20;66.80;;;;;;5034186;28;879;-70
2023/03/24 04:18:19;;;;;;;;;;;17.20;66.80;;;;;;5035052;28;1506;-71
2023/03/24 04:20:50;;;;;;;;;;;17.20;66.80;;;;;;5040131;28;884;-71
2023/03/24 04:23:27;;;;;;;;;;;17.20;66.80;;;;;;5041954;28;1906;-71
2023/03/24 04:26:00;;;;;;;;;;;17.20;66.80;;;;;;5066483;28;966;-71
2023/03/24 04:28:32;;;;;;;;;;;17.20;66.80;;;;;;5037843;28;875;-73
2023/03/24 04:31:06;;;;;;;;;;;17.20;66.80;;;;;;5040401;28;1018;-70
2023/03/24 04:33:37;;;;;;;;;;;17.20;66.90;;;;;;5036885;28;1318;-70
2023/03/24 04:36:30;;;;;;;;;;;17.20;66.90;;;;;;5036448;28;915;-69
2023/03/24 04:38:56;;;;;;;;;;;17.20;66.80;;;;;;5034562;28;1524;-71
2023/03/24 04:41:24;;;;;;;;;;;17.20;66.80;;;;;;5046764;28;1899;-70
2023/03/24 04:43:50;;;;;;;;;;;17.20;66.90;;;;;;5070399;28;1341;-70
2023/03/24 04:46:16;;;;;;;;;;;17.20;66.90;;;;;;5069278;28;807;-68
2023/03/24 04:48:43;;;;;;;;;;;17.20;66.80;;;;;;5042060;28;883;-69
2023/03/24 04:51:08;;;;;;;;;;;17.20;66.90;;;;;;5041282;28;1020;-69
2023/03/24 04:53:33;;;;;;;;;;;17.20;66.80;;;;;;5038554;28;2015;-69
2023/03/24 04:56:05;;;;;;;;;;;17.20;66.90;;;;;;5045327;28;2157;-69
2023/03/24 04:58:31;;;;;;;;;;;17.20;66.90;;;;;;5043726;28;1388;-69
2023/03/24 05:00:57;;;;;;;;;;;17.20;66.90;;;;;;5041264;28;773;-69
2023/03/24 05:03:22;;;;;;;;;;;17.20;66.90;;;;;;5051468;28;1906;-69
2023/03/24 05:05:48;;;;;;;;;;;17.20;66.90;;;;;;5051540;28;890;-69
2023/03/24 05:08:15;;;;;;;;;;;17.20;66.80;;;;;;5042389;28;860;-69
2023/03/24 05:10:40;;;;;;;;;;;17.20;66.80;;;;;;5075981;28;824;-68
2023/03/24 05:13:08;;;;;;;;;;;17.20;66.70;;;;;;5041220;28;1286;-68
2023/03/24 05:15:34;;;;;;;;;;;17.20;66.70;;;;;;5036021;28;895;-69
2023/03/24 05:17:59;;;;;;;;;;;17.30;66.60;;;;;;5049242;28;908;-69
2023/03/24 05:20:25;;;;;;;;;;;17.30;66.50;;;;;;5038824;28;887;-71
2023/03/24 05:22:51;;;;;;;;;;;17.30;66.40;;;;;;5042139;28;1987;-70
2023/03/24 05:25:16;;;;;;;;;;;17.30;66.20;;;;;;5042681;28;1347;-73
2023/03/24 05:27:42;;;;;;;;;;;17.40;66.20;;;;;;5040316;28;889;-72
2023/03/24 05:30:07;;;;;;;;;;;17.40;66.80;;;;;;5032365;28;1169;-70
2023/03/24 05:32:33;;;;;;;;;;;17.40;65.90;;;;;;5043489;28;855;-67
2023/03/24 05:34:59;;;;;;;;;;;17.50;65.90;;;;;;5039550;28;1361;-68
2023/03/24 05:37:24;;;;;;;;;;;17.50;65.80;;;;;;5041558;28;1596;-68
2023/03/24 05:39:50;;;;;;;;;;;17.50;65.70;;;;;;5040959;28;896;-68
2023/03/24 05:42:16;;;;;;;;;;;17.50;65.60;;;;;;5040417;28;1909;-67
2023/03/24 05:44:41;;;;;;;;;;;17.60;65.50;;;;;;5037405;28;1276;-68
2023/03/24 05:47:07;;;;;;;;;;;17.60;65.50;;;;;;5039306;28;1734;-69
2023/03/24 05:49:32;;;;;;;;;;;17.60;65.40;;;;;;5040498;28;884;-69
2023/03/24 05:51:58;;;;;;;;;;;17.60;65.30;;;;;;5040010;28;1378;-69
2023/03/24 05:54:24;;;;;;;;;;;17.60;65.20;;;;;;5039117;28;1292;-69
2023/03/24 05:56:50;;;;;;;;;;;17.70;65.20;;;;;;5042321;28;1597;-69
2023/03/24 05:59:16;;;;;;;;;;;17.70;65.10;;;;;;5039656;28;860;-69
2023/03/24 06:01:41;;;;;;;;;;;17.60;65.00;;;;;;5041153;28;1902;-69
2023/03/24 06:04:07;;;;;;;;;;;17.70;65.00;;;;;;5037516;28;1274;-68
2023/03/24 06:06:32;;;;;;;;;;;17.70;65.00;;;;;;5039805;28;951;-67
2023/03/24 06:09:01;;;;;;;;;;;17.70;64.90;;;;;;5041173;28;858;-67
2023/03/24 06:11:27;;;;;;;;;;;17.70;64.80;;;;;;5037019;28;938;-67
2023/03/24 06:13:57;;;;;;;;;;;17.70;64.80;;;;;;5040302;28;1375;-68
2023/03/24 06:16:24;;;;;;;;;;;17.70;64.80;;;;;;5063942;28;1535;-68
2023/03/24 06:18:51;;;;;;;;;;;17.70;64.70;;;;;;5038901;28;968;-68
2023/03/24 06:21:17;;;;;;;;;;;17.80;64.70;;;;;;5037223;28;1918;-69
2023/03/24 06:23:43;;;;;;;;;;;17.80;64.80;;;;;;5040335;28;1685;-70
2023/03/24 06:26:09;;;;;;;;;;;17.80;64.70;;;;;;5074871;28;890;-70
2023/03/24 06:28:35;;;;;;;;;;;17.80;64.70;;;;;;5039963;28;895;-70
2023/03/24 06:31:00;;;;;;;;;;;17.80;64.60;;;;;;5071519;28;936;-70
2023/03/24 06:33:25;;;;;;;;;;;17.80;64.60;;;;;;5072191;28;1454;-71
2023/03/24 06:35:51;;;;;;;;;;;17.80;64.60;;;;;;5038007;28;903;-71
2023/03/24 06:38:17;;;;;;;;;;;17.80;64.60;;;;;;5047722;28;1092;-71
2023/03/24 06:40:42;;;;;;;;;;;17.80;64.70;;;;;;5071160;28;1464;-71
2023/03/24 06:43:08;;;;;;;;;;;17.80;64.60;;;;;;5036807;28;1902;-70
2023/03/24 06:45:33;;;;;;;;;;;17.80;64.70;;;;;;5036264;28;891;-71
2023/03/24 06:47:59;;;;;;;;;;;17.80;65.40;;;;;;5071441;28;838;-72
2023/03/24 06:50:31;;;;;;;;;;;17.80;64.60;;;;;;5040225;28;834;-72
2023/03/24 06:52:58;;;;;;;;;;;17.80;64.60;;;;;;5039653;28;940;-71
2023/03/24 06:55:23;;;;;;;;;;;17.80;64.60;;;;;;5039342;28;1337;-71
2023/03/24 06:57:49;;;;;;;;;;;17.80;64.70;;;;;;5040132;28;943;-71
2023/03/24 07:00:15;;;;;;;;;;;17.80;64.70;;;;;;5042159;28;887;-72
2023/03/24 07:02:41;;;;;;;;;;;17.80;64.70;;;;;;5038645;28;1903;-68
2023/03/24 07:05:08;;;;;;;;;;;17.80;64.70;;;;;;5036480;28;1248;-68
2023/03/24 07:07:34;;;;;;;;;;;17.80;64.80;;;;;;5040083;28;883;-72
2023/03/24 07:09:59;;;;;;;;;;;17.70;64.70;;;;;;5033044;28;914;-70
2023/03/24 07:12:25;;;;;;;;;;;17.80;64.80;;;;;;5067658;28;896;-70
2023/03/24 07:14:51;;;;;;;;;;;17.70;64.80;;;;;;5038254;28;1277;-72
2023/03/24 07:17:16;;;;;;;;;;;17.70;64.80;;;;;;5041593;28;1432;-71
2023/03/24 07:19:43;;;;;;;;;;;17.70;64.80;;;;;;5072418;28;1042;-69
2023/03/24 07:22:09;;;;;;;;;;;17.70;64.80;;;;;;5072063;28;1906;-70
2023/03/24 07:24:34;;;;;;;;;;;17.70;64.90;;;;;;5037571;28;1350;-72
2023/03/24 07:27:00;;;;;;;;;;;17.70;64.90;;;;;;5036290;28;848;-73
2023/03/24 07:29:25;;;;;;;;;;;17.70;64.90;;;;;;5037910;28;806;-70
2023/03/24 07:31:53;;;;;;;;;;;17.70;64.90;;;;;;5043963;28;876;-71
2023/03/24 07:34:18;;;;;;;;;;;17.70;65.00;;;;;;5038846;28;1256;-70
2023/03/24 07:36:44;;;;;;;;;;;17.70;65.00;;;;;;5038113;28;1471;-72
2023/03/24 07:39:09;;;;;;;;;;;17.70;65.00;;;;;;5037317;28;862;-71
2023/03/24 07:41:35;;;;;;;;;;;17.70;65.00;;;;;;5046076;28;1898;-72
2023/03/24 07:44:01;;;;;;;;;;;17.70;65.00;;;;;;5066705;28;1275;-71
2023/03/24 07:46:27;;;;;;;;;;;17.70;65.10;;;;;;5073978;28;926;-71
2023/03/24 07:48:52;;;;;;;;;;;17.70;65.10;;;;;;5040445;28;916;-69
2023/03/24 07:51:18;;;;;;;;;;;17.70;65.10;;;;;;5039677;28;929;-70
2023/03/24 07:53:44;;;;;;;;;;;17.70;65.10;;;;;;5039579;28;1239;-70
2023/03/24 07:56:10;;;;;;;;;;;17.70;65.10;;;;;;5039698;28;928;-71
2023/03/24 07:58:35;;;;;;;;;;;17.70;65.10;;;;;;5034372;28;1385;-70
2023/03/24 08:01:01;;;;;;;;;;;17.70;65.10;;;;;;5037709;28;1058;-71
2023/03/24 08:03:26;;;;;;;;;;;17.70;65.20;;;;;;5040616;28;1969;-71
2023/03/24 08:05:53;;;;;;;;;;;17.60;65.10;;;;;;5036717;28;840;-71
2023/03/24 08:08:19;;;;;;;;;;;17.70;65.20;;;;;;5036880;28;853;-71
2023/03/24 08:10:48;;;;;;;;;;;17.70;65.20;;;;;;5035436;28;867;-71
2023/03/24 08:13:14;;;;;;;;;;;17.70;65.20;;;;;;5034540;28;1343;-71
2023/03/24 08:15:40;;;;;;;;;;;17.70;65.20;;;;;;5069135;28;1037;-71
2023/03/24 08:18:05;;;;;;;;;;;17.70;65.20;;;;;;5037595;28;871;-71
2023/03/24 08:20:31;;;;;;;;;;;17.60;65.20;;;;;;5040193;28;895;-71
2023/03/24 08:22:56;;;;;;;;;;;17.60;65.20;;;;;;5041483;28;1971;-71
2023/03/24 08:25:22;;;;;;;;;;;17.60;65.20;;;;;;5044796;28;1350;-72
2023/03/24 08:27:48;;;;;;;;;;;17.60;65.20;;;;;;5038967;28;821;-71
2023/03/24 08:30:15;;;;;;;;;;;17.60;65.20;;;;;;5038266;28;2173;-71
2023/03/24 08:32:44;;;;;;;;;;;17.60;65.30;;;;;;5040001;28;2001;-70
2023/03/24 08:35:13;;;;;;;;;;;17.60;65.30;;;;;;5041480;28;1861;-70
2023/03/24 08:37:39;;;;;;;;;;;17.60;65.30;;;;;;5045413;28;1322;-71
2023/03/24 08:40:05;;;;;;;;;;;17.60;65.30;;;;;;5044843;28;1182;-71
2023/03/24 08:42:31;;;;;;;;;;;17.60;65.30;;;;;;5043926;28;1914;-70
2023/03/24 08:44:56;;;;;;;;;;;17.60;65.30;;;;;;5043245;28;1314;-71
2023/03/24 08:47:22;;;;;;;;;;;17.60;65.40;;;;;;5044792;28;884;-70
2023/03/24 08:49:47;;;;;;;;;;;17.60;65.40;;;;;;5041331;28;928;-70
2023/03/24 08:52:13;;;;;;;;;;;17.60;66.20;;;;;;5043975;28;1331;-71
2023/03/24 08:54:38;;;;;;;;;;;17.60;65.40;;;;;;5043258;28;1276;-71
2023/03/24 08:57:03;;;;;;;;;;;17.60;65.50;;;;;;5041342;28;1296;-70
2023/03/24 08:59:29;;;;;;;;;;;17.60;65.50;;;;;;5041500;28;1019;-70
2023/03/24 09:01:54;;;;;;;;;;;17.60;65.50;;;;;;5048016;28;1906;-70
2023/03/24 09:04:20;;;;;;;;;;;17.60;65.50;;;;;;5043970;28;1265;-70
2023/03/24 09:06:46;;;;;;;;;;;17.60;65.50;;;;;;5042755;28;870;-70
2023/03/24 09:09:11;;;;;;;;;;;17.60;65.50;;;;;;5041353;28;800;-71
2023/03/24 09:11:37;;;;;;;;;;;17.60;65.60;;;;;;5040444;28;887;-70
2023/03/24 09:14:02;;;;;;;;;;;17.60;65.50;;;;;;5042531;28;1326;-70
2023/03/24 09:16:27;;;;;;;;;;;17.60;65.60;;;;;;5038116;28;880;-70
2023/03/24 09:18:53;;;;;;;;;;;17.60;65.50;;;;;;5041052;28;1380;-70
2023/03/24 09:21:18;;;;;;;;;;;17.60;65.60;;;;;;5042813;28;1918;-70
2023/03/24 09:23:44;;;;;;;;;;;17.60;65.60;;;;;;5042508;28;1351;-70
2023/03/24 09:26:10;;;;;;;;;;;17.60;65.60;;;;;;5043819;28;796;-70
2023/03/24 09:28:35;;;;;;;;;;;17.60;65.60;;;;;;5042332;28;899;-71
2023/03/24 09:31:01;;;;;;;;;;;17.60;65.60;;;;;;5073579;28;845;-70
2023/03/24 09:33:28;;;;;;;;;;;17.60;65.60;;;;;;5038332;28;1338;-71
2023/03/24 09:35:54;;;;;;;;;;;17.60;65.60;;;;;;5038736;28;872;-71
2023/03/24 09:38:20;;;;;;;;;;;17.60;65.50;;;;;;5040717;28;1581;-70
2023/03/24 09:40:45;;;;;;;;;;;17.60;65.50;;;;;;5041791;28;1294;-71
2023/03/24 09:43:30;;;;;;;;;;;17.60;65.50;;;;;;5041169;28;1894;-71
2023/03/24 09:45:56;;;;;;;;;;;17.60;65.50;;;;;;5057295;28;1485;-71
2023/03/24 09:48:27;;;;;;;;;;;17.60;65.40;;;;;;5040481;28;864;-71
2023/03/24 09:51:22;;;;;;;;;;;17.60;65.40;;;;;;5040392;28;1018;-71
2023/03/24 09:53:50;;;;;;;;;;;17.60;65.30;;;;;;5041848;28;2137;-71
2023/03/24 09:56:16;;;;;;;;;;;17.60;65.30;;;;;;5042682;28;1767;-72
2023/03/24 09:58:42;;;;;;;;;;;17.70;65.30;;;;;;5040977;28;1513;-72
2023/03/24 10:01:14;;;;;;;;;;;17.70;65.30;;;;;;5048849;28;1438;-71
2023/03/24 10:03:41;;;;;;;;;;;17.70;65.20;;;;;;5040004;28;1894;-71
2023/03/24 10:06:11;;;;;;;;;;;17.70;65.20;;;;;;5072138;28;939;-71
2023/03/24 10:08:37;;;;;;;;;;;17.70;65.20;;;;;;5049402;28;864;-72
2023/03/24 10:11:05;;;;;;;;;;;17.70;65.20;;;;;;5040795;28;1031;-72
2023/03/24 10:13:34;;;;;;;;;;;17.70;65.20;;;;;;5038701;28;1288;-71
2023/03/24 10:16:08;;;;;;;;;;;17.70;65.20;;;;;;5076523;28;846;-73
2023/03/24 10:18:39;;;;;;;;;;;17.70;65.20;;;;;;5072256;28;1034;-72
2023/03/24 10:21:06;;;;;;;;;;;17.70;65.20;;;;;;5073473;28;942;-73
2023/03/24 10:23:44;;;;;;;;;;;17.70;65.20;;;;;;5073968;28;1910;-71
2023/03/24 10:26:21;;;;;;;;;;;17.70;65.20;;;;;;5038733;28;879;-73
2023/03/24 10:28:51;;;;;;;;;;;17.70;65.30;;;;;;5073830;28;1085;-72
2023/03/24 10:31:17;;;;;;;;;;;17.60;65.20;;;;;;5075202;28;1026;-73
2023/03/24 10:33:43;;;;;;;;;;;17.70;65.30;;;;;;5039013;28;1382;-73
2023/03/24 10:36:13;;;;;;;;;;;17.70;65.30;;;;;;5036787;28;834;-73
2023/03/24 10:38:39;;;;;;;;;;;17.60;65.20;;;;;;5036448;28;875;-73
2023/03/24 10:41:04;;;;;;;;;;;17.70;65.30;;;;;;5044375;28;833;-72
2023/03/24 10:43:31;;;;;;;;;;;17.60;65.30;;;;;;5037338;28;1905;-73
2023/03/24 10:45:56;;;;;;;;;;;17.60;65.40;;;;;;5034938;28;820;-71
2023/03/24 10:48:54;;;;;;;;;;;17.60;65.40;;;;;;5071525;28;788;-71
2023/03/24 10:51:20;;;;;;;;;;;17.60;65.40;;;;;;5041653;28;1185;-71
2023/03/24 10:53:47;;;;;;;;;;;17.60;65.40;;;;;;5041489;28;1697;-71
2023/03/24 10:56:36;;;;;;;;;;;17.60;65.40;;;;;;5065813;28;895;-71
2023/03/24 10:59:02;;;;;;;;;;;17.60;65.40;;;;;;5038841;28;1572;-72
2023/03/24 11:01:29;;;;;;;;;;;17.60;65.50;;;;;;5039441;28;1902;-72
2023/03/24 11:04:13;;;;;;;;;;;17.60;65.50;;;;;;5037901;28;1317;-72
2023/03/24 11:06:38;;;;;;;;;;;17.60;65.50;;;;;;5070285;28;1006;-69
2023/03/24 11:09:22;;;;;;;;;;;17.60;65.50;;;;;;5037132;28;1095;-69
2023/03/24 11:11:49;;;;;;;;;;;17.60;65.50;;;;;;5035377;28;1090;-68
2023/03/24 11:14:21;;;;;;;;;;;17.60;65.60;;;;;;5046046;28;1414;-69
2023/03/24 11:16:46;;;;;;;;;;;17.60;65.60;;;;;;5042198;28;924;-69
2023/03/24 11:19:21;;;;;;;;;;;17.60;65.60;;;;;;5039068;28;983;-69
2023/03/24 11:21:47;;;;;;;;;;;17.60;65.60;;;;;;5038803;28;1914;-69
2023/03/24 11:24:14;;;;;;;;;;;17.60;65.60;;;;;;5037661;28;1267;-69
2023/03/24 11:26:40;;;;;;;;;;;17.60;65.70;;;;;;5041064;28;1055;-69
2023/03/24 11:29:12;;;;;;;;;;;17.60;65.70;;;;;;5069929;28;1294;-70
2023/03/24 11:31:38;;;;;;;;;;;17.60;65.70;;;;;;5069644;28;848;-70
2023/03/24 11:34:15;;;;;;;;;;;17.60;65.70;;;;;;5070561;28;1315;-70
2023/03/24 11:36:54;;;;;;;;;;;17.60;65.70;;;;;;5042432;28;1347;-69
2023/03/24 11:39:21;;;;;;;;;;;17.50;65.70;;;;;;5037399;28;873;-69
2023/03/24 11:42:12;;;;;;;;;;;17.50;65.70;;;;;;5037196;28;1910;-70
2023/03/24 11:44:38;;;;;;;;;;;17.50;65.70;;;;;;5036736;28;1293;-69
2023/03/24 11:47:05;;;;;;;;;;;17.50;65.70;;;;;;5035459;28;957;-69
2023/03/24 11:49:31;;;;;;;;;;;17.60;65.80;;;;;;5047036;28;859;-69
2023/03/24 11:51:57;;;;;;;;;;;17.50;65.80;;;;;;5033893;28;1371;-70
2023/03/24 11:54:24;;;;;;;;;;;17.60;65.90;;;;;;5039090;28;1367;-70
2023/03/24 11:56:53;;;;;;;;;;;17.50;65.80;;;;;;5073937;28;843;-70
2023/03/24 11:59:31;;;;;;;;;;;17.50;66.50;;;;;;5038036;28;1003;-70
2023/03/24 12:02:03;;;;;;;;;;;17.50;65.80;;;;;;5035932;28;1911;-70
2023/03/24 12:04:49;;;;;;;;;;;17.50;65.80;;;;;;5045880;28;1303;-70
2023/03/24 12:07:34;;;;;;;;;;;17.50;65.90;;;;;;5036988;28;1145;-70
2023/03/24 12:10:02;;;;;;;;;;;17.50;65.90;;;;;;5039448;28;919;-70
2023/03/24 12:12:46;;;;;;;;;;;17.50;65.90;;;;;;5039323;28;804;-70
2023/03/24 12:15:11;;;;;;;;;;;17.50;65.90;;;;;;5040262;28;1235;-71
2023/03/24 12:17:40;;;;;;;;;;;17.50;65.90;;;;;;5039891;28;912;-71
2023/03/24 12:20:14;;;;;;;;;;;17.50;65.90;;;;;;5037114;28;1049;-69
2023/03/24 12:22:59;;;;;;;;;;;17.50;65.90;;;;;;5037050;28;1894;-70
2023/03/24 12:25:36;;;;;;;;;;;17.50;66.00;;;;;;5037188;28;1231;-70
2023/03/24 12:28:02;;;;;;;;;;;17.50;66.00;;;;;;5034631;28;864;-70
2023/03/24 12:30:33;;;;;;;;;;;17.50;66.00;;;;;;5043815;28;894;-70
2023/03/24 12:33:05;;;;;;;;;;;17.50;66.00;;;;;;5036827;28;933;-70
2023/03/24 12:35:36;;;;;;;;;;;17.50;66.10;;;;;;5036152;28;1713;-70
2023/03/24 12:38:04;;;;;;;;;;;17.50;66.10;;;;;;5038432;28;1382;-70
2023/03/24 12:40:35;;;;;;;;;;;17.50;66.10;;;;;;5040691;28;859;-70
2023/03/24 12:43:24;;;;;;;;;;;17.50;66.10;;;;;;5071706;28;1985;-70
2023/03/24 12:45:51;;;;;;;;;;;17.50;66.10;;;;;;5035576;28;1363;-70
2023/03/24 12:48:29;;;;;;;;;;;17.40;66.10;;;;;;5066945;28;1647;-67
2023/03/24 12:51:07;;;;;;;;;;;17.50;66.10;;;;;;5036320;28;1817;-68
2023/03/24 12:53:52;;;;;;;;;;;17.40;66.10;;;;;;5054447;28;1418;-68
2023/03/24 12:56:50;;;;;;;;;;;17.40;66.10;;;;;;5049012;28;1228;-70
2023/03/24 12:59:17;;;;;;;;;;;17.50;66.20;;;;;;5035704;28;1220;-67
2023/03/24 13:01:43;;;;;;;;;;;17.40;66.10;;;;;;5046215;28;1898;-67
2023/03/24 13:04:20;;;;;;;;;;;17.40;66.10;;;;;;5033785;28;1365;-67
2023/03/24 13:07:04;;;;;;;;;;;17.40;66.20;;;;;;5035620;28;840;-68
2023/03/24 13:09:33;;;;;;;;;;;17.50;66.20;;;;;;5044914;28;860;-66
2023/03/24 13:12:02;;;;;;;;;;;17.40;66.10;;;;;;5038091;28;895;-67
2023/03/24 13:14:47;;;;;;;;;;;17.40;66.20;;;;;;5043093;28;1252;-67
2023/03/24 13:17:15;;;;;;;;;;;17.50;66.20;;;;;;5037242;28;900;-66
2023/03/24 13:19:40;;;;;;;;;;;17.40;66.20;;;;;;5040305;28;825;-67
2023/03/24 13:22:08;;;;;;;;;;;17.40;66.20;;;;;;5042778;28;1991;-67
2023/03/24 13:24:33;;;;;;;;;;;17.40;66.20;;;;;;5070458;28;1254;-67
2023/03/24 13:27:10;;;;;;;;;;;17.50;66.30;;;;;;5049876;28;925;-67
2023/03/24 13:29:39;;;;;;;;;;;17.40;66.30;;;;;;5039184;28;891;-70
2023/03/24 13:32:23;;;;;;;;;;;17.40;67.00;;;;;;5043597;28;903;-69
2023/03/24 13:34:54;;;;;;;;;;;17.40;66.30;;;;;;5040726;28;1298;-68
2023/03/24 13:37:28;;;;;;;;;;;17.40;66.30;;;;;;5040188;28;1462;-67
2023/03/24 13:39:57;;;;;;;;;;;17.40;66.30;;;;;;5048752;28;888;-70
2023/03/24 13:42:26;;;;;;;;;;;17.40;66.30;;;;;;5048649;28;1894;-69
2023/03/24 13:44:51;;;;;;;;;;;17.40;66.30;;;;;;5072098;28;1354;-68
2023/03/24 13:47:17;;;;;;;;;;;17.40;66.40;;;;;;5041058;28;925;-70
2023/03/24 13:49:55;;;;;;;;;;;17.40;66.40;;;;;;5073555;28;1061;-69
2023/03/24 13:52:24;;;;;;;;;;;17.40;66.30;;;;;;5043794;28;1294;-69
2023/03/24 13:54:50;;;;;;;;;;;17.40;66.40;;;;;;5040872;28;1241;-69
2023/03/24 13:57:19;;;;;;;;;;;17.40;66.40;;;;;;5074052;28;883;-69
2023/03/24 14:00:15;;;;;;;;;;;17.40;66.40;;;;;;5042309;28;1573;-69
2023/03/24 14:02:41;;;;;;;;;;;17.40;66.40;;;;;;5072604;28;1967;-69
2023/03/24 14:05:08;;;;;;;;;;;17.40;66.40;;;;;;5039931;28;1524;-69
2023/03/24 14:07:40;;;;;;;;;;;17.40;66.40;;;;;;5040741;28;853;-69
2023/03/24 14:10:15;;;;;;;;;;;17.40;66.40;;;;;;5041598;28;856;-69
2023/03/24 14:12:52;;;;;;;;;;;17.40;66.40;;;;;;5037431;28;876;-69
2023/03/24 14:15:21;;;;;;;;;;;17.40;66.40;;;;;;5037377;28;1215;-69
2023/03/24 14:17:47;;;;;;;;;;;17.40;66.50;;;;;;5047438;28;1461;-69
2023/03/24 14:20:22;;;;;;;;;;;17.40;66.50;;;;;;5037319;28;923;-69
2023/03/24 14:22:48;;;;;;;;;;;17.40;66.50;;;;;;5073266;28;1905;-69
2023/03/24 14:25:13;;;;;;;;;;;17.40;66.50;;;;;;5056360;28;1339;-69
2023/03/24 14:27:41;;;;;;;;;;;17.40;66.50;;;;;;5038829;28;1031;-69
2023/03/24 14:30:09;;;;;;;;;;;17.40;66.50;;;;;;5046042;28;957;-69
2023/03/24 14:33:07;;;;;;;;;;;17.40;66.50;;;;;;5039540;28;884;-69
2023/03/24 14:35:32;;;;;;;;;;;17.40;66.50;;;;;;5021402;28;1394;-69
2023/03/24 14:38:03;;;;;;;;;;;17.40;66.50;;;;;;5038163;28;1065;-69
2023/03/24 14:40:38;;;;;;;;;;;17.30;66.50;;;;;;5069632;28;890;-69
2023/03/24 14:43:12;;;;;;;;;;;17.40;66.50;;;;;;5070750;28;1965;-69
2023/03/24 14:45:41;;;;;;;;;;;17.30;66.50;;;;;;5036102;28;958;-69
2023/03/24 14:48:24;;;;;;;;;;;17.30;66.50;;;;;;5035744;28;1284;-69